Terminal Aerodrome Forecast
Issued by NWS Upton, NY

Home | Current Version | Previous Version | Text Only | Print | Product List | Glossary On
Versions: 1 2 3 4 5 6 7 8 9 10 11 12 13 14 15 16 17 18 19 20 21 22 23 24 25 26 27 28 29
000
FTUS41 KOKX 011729
TAFLGA
TAF
KLGA 011729Z 0118/0218 04007KT P6SM SCT050
     FM011900 15007KT P6SM SCT050
     FM020300 VRB04KT P6SM SCT040
     FM021600 16009KT P6SM SCT050=

USA.gov is the U.S. government's official web portal to all federal, state and local government web resources and services.